Flight Track Log - Related Links

Times and Time Zones

All times are in EDT time to prevent confusion due to time zone crossing. See the FLG4149 flight status page for this flight to view local times or setup timezone preferences in your user account.

Time Position Orientation Groundspeed Altitude Reporting Facility
EDT Latitude Longitude Course Direction KTS MPH feet Rate Location/Type
Thu 07:12:10 AM 38.0019 -84.6378 82° East 178 205 2,900  Level Indianapolis Center
Thu 07:13:11 AM 37.9519 -84.6558 196° South 207 238 4,600 2,213 Climbing Indianapolis Center
Thu 07:14:00 AM 38.0758 -84.1601 81° East  Level FlightAware Approximate
Thu 07:14:12 AM 37.9372 -84.5636 101° East 270 311 7,400  Level Indianapolis Center
Thu 07:15:00 AM 38.0966 -84.0139 79° East  Level FlightAware Approximate
Thu 07:15:14 AM 37.9558 -84.4619 77° East 290 334 8,900  Level Indianapolis Center
Thu 07:16:00 AM 38.1192 -83.8680 78° East  Level FlightAware Approximate
Thu 07:16:15 AM 37.9719 -84.3375 81° East 302 348 10,000  Level Indianapolis Center
Thu 07:17:00 AM 38.1402 -83.7218 82° East  Level FlightAware Approximate
Thu 07:17:16 AM 37.9919 -84.2203 78° East 331 381 10,800  Level Indianapolis Center
Thu 07:18:17 AM 38.0119 -84.0919 79° East 363 418 12,800 1,967 Climbing Indianapolis Center
Thu 07:19:18 AM 38.0336 -83.9594 78° East 379 436 14,800 2,000 Climbing Indianapolis Center
Thu 07:20:20 AM 38.0544 -83.8239 79° East 389 448 16,900 1,805 Climbing Indianapolis Center
Thu 07:21:21 AM 38.0750 -83.6861 79° East 395 455 18,500 1,426 Climbing Indianapolis Center
Thu 07:22:22 AM 38.0964 -83.5461 79° East 402 463 19,800 1,230 Climbing Indianapolis Center
Thu 07:23:23 AM 38.1186 -83.4019 79° East 414 476 21,000 1,220 Climbing Indianapolis Center
Thu 07:24:25 AM 38.1408 -83.2525 79° East 428 493 22,300 1,220 Climbing Indianapolis Center
Thu 07:25:26 AM 38.1622 -83.1047 80° East 425 489 23,500 1,180 Climbing Indianapolis Center
Thu 07:26:27 AM 38.1839 -82.9564 79° East 425 489 24,700 732 Climbing Indianapolis Center
Thu 07:27:29 AM 38.2092 -82.7778 80° East 437 503 25,000 146 Climbing Indianapolis Center
Thu 07:28:30 AM 38.2322 -82.6181 80° East 451 519 25,000  Level Indianapolis Center
Thu 07:29:31 AM 38.2553 -82.4594 79° East 468 539 25,000  Level Indianapolis Center
Thu 07:30:33 AM 38.2786 -82.2914 80° East 479 551 25,000  Level Indianapolis Center
Thu 07:31:34 AM 38.3025 -82.1231 80° East 484 557 25,000  Level Indianapolis Center
Thu 07:32:35 AM 38.3264 -81.9539 80° East 488 562 25,000  Level Indianapolis Center
Thu 07:33:37 AM 38.3483 -81.7853 81° East 487 560 25,000 488 Level Indianapolis Center
Thu 07:34:38 AM 38.3436 -81.5878 92° East 471 542 26,000 488 Climbing Indianapolis Center
Thu 07:35:40 AM 38.3386 -81.4244 92° East 468 539 26,000 195 Level Indianapolis Center
Thu 07:36:41 AM 38.3331 -81.2622 92° East 464 534 26,400 488 Climbing Indianapolis Center
Thu 07:37:43 AM 38.3272 -81.0964 93° East 459 528 27,000 293 Climbing Indianapolis Center
Thu 07:38:44 AM 38.3214 -80.9389 93° East 461 531 27,000  Level Indianapolis Center
Thu 07:39:33 AM 38.3161 -80.8106 93° East 461 531 27,000  Level Washington Center
Thu 07:40:31 AM 38.3106 -80.6486 92° East 456 525 27,000  Level Washington Center
Thu 07:41:32 AM 38.3036 -80.4658 93° East 467 537 27,000  Level Washington Center
Thu 07:42:32 AM 38.2994 -80.3119 92° East 456 525 27,000  Level Washington Center
Thu 07:43:33 AM 38.2922 -80.1711 94° East 423 487 27,000  Level Washington Center
Thu 07:44:33 AM 38.2744 -80.0353 99° East 405 466 27,000  Level Washington Center
Thu 07:45:34 AM 38.2353 -79.9114 112° Southeast 400 460 27,000  Level Washington Center
Thu 07:46:34 AM 38.2506 -79.7747 82° East 390 449 27,000  Level Washington Center
Thu 07:47:33 AM 38.2906 -79.6419 69° East 382 440 27,000  Level Washington Center
Thu 07:48:33 AM 38.3325 -79.5067 68° East 395 455 27,000  Level Washington Center
Thu 07:49:34 AM 38.3722 -79.3736 69° East 395 455 27,000  Level Washington Center
Thu 07:50:32 AM 38.4211 -79.2144 69° East 418 481 27,000 -202 Level Washington Center
Thu 07:51:33 AM 38.4650 -79.0681 69° East 430 495 26,600 -836 Descending Washington Center
Thu 07:52:34 AM 38.4942 -78.9156 76° East 430 495 25,300 -1,339 Descending Washington Center
Thu 07:53:34 AM 38.5147 -78.7758 79° East 436 502 23,900 -1,525 Descending Washington Center
Thu 07:54:32 AM 38.5375 -78.6256 79° East 436 502 22,300 -1,576 Descending Washington Center
Thu 07:55:32 AM 38.5597 -78.4803 79° East 425 489 20,800 -1,587 Descending Washington Center
Thu 07:56:33 AM 38.5839 -78.3353 78° East 425 489 19,100 -1,785 Descending Washington Center
Thu 07:57:33 AM 38.6142 -78.2008 74° East 408 470 17,200 -1,850 Descending Washington Center
Thu 07:58:33 AM 38.6544 -78.0719 68° East 392 451 15,400 -1,537 Descending Washington Center
Thu 07:59:34 AM 38.6944 -77.9483 67° East 382 440 14,100 -1,210 Descending Washington Center
Thu 08:00:32 AM 38.7319 -77.8350 67° East 360 414 13,000 -1,361 Descending Washington Center
Thu 08:01:33 AM 38.7964 -77.7386 49° Northeast 332 382 11,400 -1,289 Descending Washington Center
Thu 08:02:33 AM 38.8497 -77.6600 49° Northeast 321 369 10,400 -1,321 Descending Washington Center
Thu 08:03:22 AM 38.9000 -77.5667 55° Northeast 313 360 9,000 -1,541 Descending Potomac TRACON
Thu 08:04:22 AM 38.9167 -77.4667 78° East 308 354 7,600 -1,474 Descending Potomac TRACON
Thu 08:05:16 AM 38.9333 -77.3833 76° East 304 350 6,200 -1,632 Descending Potomac TRACON
Thu 08:06:16 AM 38.9500 -77.2667 80° East 300 345 4,500 -1,700 Descending Potomac TRACON
Thu 08:07:16 AM 38.9333 -77.1667 102° East 292 336 2,800 -1,474 Descending Potomac TRACON
Thu 08:08:10 AM 38.9167 -77.1000 108° East 211 243 1,700 -1,167 Descending Potomac TRACON
Thu 08:09:04 AM 38.8833 -77.0500 131° Southeast 162 186 700 -1,111 Descending Potomac TRACON

Login

Don't have an account? Register now (free) for customized features, flight alerts, and more!